Time;durP1;ratioP1;P1;durP2;ratioP2;P2;SDS_P1;SDS_P2;PMS_P1;PMS_P2;Temp;Humidity;BMP_temperature;BMP_pressure;BME280_temperature;BME280_humidity;BME280_pressure;Samples;Min_cycle;Max_cycle;Signal;HPM_P1;HPM_P2
2021/04/20 00:02:26;;;;;;;26.95;23.58;;;9.40;99.90;;;;;;4985068;28;20748;-81
2021/04/20 00:04:53;;;;;;;26.88;23.35;;;9.40;99.90;;;;;;4984618;28;20309;-81
2021/04/20 00:07:20;;;;;;;29.73;23.63;;;9.40;99.90;;;;;;5002254;28;20208;-80
2021/04/20 00:09:47;;;;;;;26.77;23.65;;;9.30;99.90;;;;;;5001458;28;20212;-80
2021/04/20 00:12:14;;;;;;;26.63;23.08;;;9.20;99.90;;;;;;5002536;28;20283;-81
2021/04/20 00:14:42;;;;;;;25.40;22.45;;;9.10;99.90;;;;;;5003817;28;20248;-80
2021/04/20 00:17:09;;;;;;;24.80;22.00;;;9.10;99.90;;;;;;5000965;28;20193;-81
2021/04/20 00:19:35;;;;;;;24.20;21.60;;;9.10;99.90;;;;;;4982623;28;20204;-80
2021/04/20 00:22:03;;;;;;;25.17;22.13;;;9.00;99.90;;;;;;4996896;28;20287;-80
2021/04/20 00:24:29;;;;;;;27.65;22.67;;;8.80;99.90;;;;;;4964858;28;20228;-80
2021/04/20 00:27:00;;;;;;;26.83;23.40;;;8.70;99.90;;;;;;4954666;28;20263;-80
2021/04/20 00:29:27;;;;;;;25.27;22.60;;;8.70;99.90;;;;;;4999711;28;20221;-80
2021/04/20 00:31:54;;;;;;;26.83;22.48;;;8.80;99.90;;;;;;4981890;28;20197;-80
2021/04/20 00:34:21;;;;;;;26.83;22.73;;;8.70;99.90;;;;;;4966504;28;20213;-80
2021/04/20 00:36:48;;;;;;;27.73;23.17;;;8.80;99.90;;;;;;4982433;28;20193;-81
2021/04/20 00:39:15;;;;;;;29.45;23.63;;;8.80;99.90;;;;;;4983186;28;20195;-80
2021/04/20 00:41:42;;;;;;;26.83;23.80;;;8.60;99.90;;;;;;4981928;28;20300;-80
2021/04/20 00:44:09;;;;;;;29.23;25.98;;;8.60;99.90;;;;;;4981899;28;20232;-80
2021/04/20 00:46:35;;;;;;;31.80;25.67;;;8.50;99.90;;;;;;4966400;28;20201;-81
2021/04/20 00:49:03;;;;;;;31.83;26.10;;;8.60;99.90;;;;;;4998849;28;20276;-80
2021/04/20 00:51:30;;;;;;;30.45;26.23;;;8.70;99.90;;;;;;4981745;28;20220;-80
2021/04/20 00:53:57;;;;;;;29.17;24.50;;;8.70;99.90;;;;;;4999645;28;20755;-80
2021/04/20 00:56:24;;;;;;;27.48;24.42;;;8.80;99.90;;;;;;4982051;28;20239;-81
2021/04/20 00:58:51;;;;;;;26.48;23.67;;;8.80;99.90;;;;;;4985449;28;20635;-81
2021/04/20 01:01:18;;;;;;;29.30;26.20;;;8.80;99.90;;;;;;4965854;28;20568;-81
2021/04/20 01:03:44;;;;;;;26.77;23.88;;;8.80;99.90;;;;;;4982521;28;20288;-80
2021/04/20 01:06:12;;;;;;;29.52;24.33;;;8.80;99.90;;;;;;4982085;28;20205;-80
2021/04/20 01:08:42;;;;;;;29.30;25.33;;;8.80;99.90;;;;;;4981737;28;20303;-80
2021/04/20 01:11:09;;;;;;;32.75;27.67;;;8.90;99.90;;;;;;4981674;28;20752;-80
2021/04/20 01:13:36;;;;;;;34.90;29.23;;;8.80;99.90;;;;;;4999344;28;20213;-80
2021/04/20 01:16:04;;;;;;;33.38;27.88;;;8.70;99.90;;;;;;4981808;28;20254;-80
2021/04/20 01:18:32;;;;;;;33.22;28.77;;;8.70;99.90;;;;;;4982316;28;20199;-80
2021/04/20 01:21:02;;;;;;;33.85;28.85;;;8.80;99.90;;;;;;4999430;28;20193;-80
2021/04/20 01:23:51;;;;;;;33.47;28.60;;;8.90;99.90;;;;;;5000458;28;20218;-81
2021/04/20 01:26:20;;;;;;;35.28;31.08;;;8.90;99.90;;;;;;4981229;28;20201;-81
2021/04/20 01:28:48;;;;;;;35.40;30.92;;;8.90;99.90;;;;;;4981968;28;20295;-81
2021/04/20 01:31:16;;;;;;;35.03;31.23;;;8.80;99.90;;;;;;4980817;28;20259;-80
2021/04/20 01:33:43;;;;;;;36.47;32.38;;;9.00;99.90;;;;;;4981128;28;20223;-81
2021/04/20 01:36:11;;;;;;;36.53;30.38;;;8.70;99.90;;;;;;4981992;28;20718;-81
2021/04/20 01:38:40;;;;;;;35.45;28.80;;;8.60;99.90;;;;;;4981712;28;20576;-80
2021/04/20 01:41:07;;;;;;;36.38;30.38;;;8.60;99.90;;;;;;4981640;28;20198;-81
2021/04/20 01:43:35;;;;;;;31.35;27.52;;;8.30;99.90;;;;;;4980946;28;20680;-80
2021/04/20 01:46:02;;;;;;;33.33;29.23;;;8.20;99.90;;;;;;4998313;28;20214;-80
2021/04/20 01:48:29;;;;;;;33.60;28.77;;;8.20;99.90;;;;;;4981369;28;20712;-80
2021/04/20 01:50:56;;;;;;;31.50;27.05;;;8.20;99.90;;;;;;4998965;28;20200;-80
2021/04/20 01:53:23;;;;;;;35.38;28.17;;;8.20;99.90;;;;;;4981060;28;20208;-80
2021/04/20 01:55:57;;;;;;;30.48;27.13;;;8.10;99.90;;;;;;4999091;28;20201;-80
2021/04/20 01:58:25;;;;;;;32.78;28.08;;;8.10;99.90;;;;;;4981787;28;20200;-80
2021/04/20 02:00:54;;;;;;;34.30;29.15;;;8.00;99.90;;;;;;4981570;28;20205;-80
2021/04/20 02:03:22;;;;;;;38.38;30.08;;;7.90;99.90;;;;;;4980764;28;20205;-81
2021/04/20 02:05:49;;;;;;;31.60;28.17;;;8.00;99.90;;;;;;4981408;28;20668;-80
2021/04/20 02:08:16;;;;;;;33.58;29.38;;;8.20;99.90;;;;;;4998687;28;20668;-80
2021/04/20 02:10:43;;;;;;;37.95;30.42;;;8.30;99.90;;;;;;4980744;28;20296;-81
2021/04/20 02:13:11;;;;;;;40.33;31.10;;;8.20;99.90;;;;;;4980898;28;20201;-81
2021/04/20 02:15:38;;;;;;;33.20;28.45;;;8.00;99.90;;;;;;4981249;28;20324;-80
2021/04/20 02:18:06;;;;;;;38.33;28.73;;;7.80;99.90;;;;;;4998447;28;20371;-81
2021/04/20 02:20:37;;;;;;;38.53;29.55;;;7.70;99.90;;;;;;4980725;28;20283;-80
2021/04/20 02:23:06;;;;;;;35.33;26.50;;;7.80;99.90;;;;;;4981030;28;20194;-81
2021/04/20 02:25:33;;;;;;;36.35;29.27;;;7.90;99.90;;;;;;4980465;28;20223;-80
2021/04/20 02:28:00;;;;;;;33.63;27.35;;;7.80;99.90;;;;;;4997925;28;20221;-81
2021/04/20 02:30:28;;;;;;;33.90;28.10;;;7.80;99.90;;;;;;4964455;28;20194;-80
2021/04/20 02:32:56;;;;;;;32.80;27.55;;;7.90;99.90;;;;;;4995631;28;20268;-80
2021/04/20 02:35:28;;;;;;;33.20;26.65;;;8.00;99.90;;;;;;4964262;28;20220;-80
2021/04/20 02:37:55;;;;;;;33.13;28.05;;;8.20;99.90;;;;;;4965696;28;20566;-80
2021/04/20 02:40:24;;;;;;;34.05;27.90;;;8.30;99.90;;;;;;4998186;28;20268;-81
2021/04/20 02:42:52;;;;;;;30.27;25.13;;;8.40;99.90;;;;;;4981318;28;20242;-81
2021/04/20 02:45:22;;;;;;;32.67;27.98;;;8.40;99.90;;;;;;5002362;28;20209;-80
2021/04/20 02:47:49;;;;;;;36.53;30.40;;;8.40;99.90;;;;;;4986310;28;20280;-81
2021/04/20 02:50:19;;;;;;;36.83;30.67;;;8.40;99.90;;;;;;4975003;28;20206;-81
2021/04/20 02:52:49;;;;;;;32.53;27.60;;;8.50;99.90;;;;;;4964986;28;20213;-80
2021/04/20 02:55:16;;;;;;;37.92;30.48;;;8.40;99.90;;;;;;4951697;28;20295;-81
2021/04/20 02:57:46;;;;;;;34.80;29.75;;;8.30;99.90;;;;;;5001445;28;20211;-81
2021/04/20 03:00:16;;;;;;;35.50;29.10;;;8.40;99.90;;;;;;5002239;28;20189;-81
2021/04/20 03:02:45;;;;;;;39.33;30.73;;;8.40;99.90;;;;;;4967721;28;20220;-81
2021/04/20 03:05:14;;;;;;;33.45;28.65;;;8.30;99.90;;;;;;4987102;28;20229;-81
2021/04/20 03:07:42;;;;;;;31.65;27.50;;;8.20;99.90;;;;;;4965666;28;20285;-81
2021/04/20 03:10:12;;;;;;;30.38;25.27;;;7.80;99.90;;;;;;4984607;28;20198;-81
2021/04/20 03:12:41;;;;;;;29.95;25.63;;;7.30;99.90;;;;;;4949438;28;20580;-81
2021/04/20 03:15:11;;;;;;;28.80;23.30;;;7.10;99.90;;;;;;4970028;28;20260;-81
2021/04/20 03:17:39;;;;;;;30.38;25.55;;;7.10;99.90;;;;;;5021405;28;20185;-81
2021/04/20 03:20:08;;;;;;;28.02;24.90;;;6.80;99.90;;;;;;5000154;28;20268;-81
2021/04/20 03:22:35;;;;;;;26.58;21.33;;;6.80;99.90;;;;;;4986525;28;20202;-81
2021/04/20 03:25:15;;;;;;;27.40;24.05;;;6.80;99.90;;;;;;5003283;28;20227;-81
2021/04/20 03:27:44;;;;;;;31.23;25.67;;;6.70;99.90;;;;;;4985859;28;20201;-81
2021/04/20 03:30:14;;;;;;;30.23;24.80;;;6.70;99.90;;;;;;5002473;28;20201;-80
2021/04/20 03:32:46;;;;;;;36.55;27.45;;;6.60;99.90;;;;;;4987770;28;20232;-80
2021/04/20 03:35:18;;;;;;;33.13;28.33;;;6.60;99.90;;;;;;4985522;28;20590;-80
2021/04/20 03:37:51;;;;;;;37.45;30.45;;;6.80;99.90;;;;;;4985119;28;20205;-80
2021/04/20 03:40:20;;;;;;;34.42;29.95;;;6.70;99.90;;;;;;5001852;28;20201;-81
2021/04/20 03:42:51;;;;;;;38.88;30.23;;;6.70;99.90;;;;;;4984286;28;20262;-80
2021/04/20 03:45:23;;;;;;;40.08;31.60;;;6.80;99.90;;;;;;4984719;28;20221;-81
2021/04/20 03:47:54;;;;;;;38.97;29.83;;;6.60;99.90;;;;;;5001536;28;20680;-80
2021/04/20 03:50:25;;;;;;;36.58;30.52;;;6.50;99.90;;;;;;4984979;28;20205;-81
2021/04/20 03:52:57;;;;;;;45.03;33.92;;;6.60;99.90;;;;;;4967835;28;20208;-80
2021/04/20 03:55:26;;;;;;;41.85;31.75;;;6.60;99.90;;;;;;5000672;28;20224;-80
2021/04/20 03:57:55;;;;;;;38.20;30.90;;;6.70;99.90;;;;;;4968448;28;20197;-80
2021/04/20 04:00:24;;;;;;;39.13;29.67;;;6.70;99.90;;;;;;5001437;28;20209;-80
2021/04/20 04:02:53;;;;;;;36.13;28.20;;;6.70;99.90;;;;;;4998986;28;20225;-80
2021/04/20 04:05:23;;;;;;;40.22;28.95;;;6.90;99.90;;;;;;5000383;28;20220;-80
2021/04/20 04:07:52;;;;;;;37.97;28.90;;;7.10;99.90;;;;;;4982797;28;20212;-80
2021/04/20 04:10:20;;;;;;;35.20;27.27;;;7.30;99.90;;;;;;4983295;28;20197;-80
2021/04/20 04:12:52;;;;;;;38.42;28.55;;;7.40;99.90;;;;;;4982602;28;20249;-80
2021/04/20 04:15:21;;;;;;;34.55;27.80;;;7.30;99.90;;;;;;5000889;28;20214;-80
2021/04/20 04:17:49;;;;;;;41.47;28.40;;;7.40;99.90;;;;;;4983653;28;20201;-80
2021/04/20 04:20:18;;;;;;;38.90;29.15;;;7.50;99.90;;;;;;4984373;28;20259;-80
2021/04/20 04:22:52;;;;;;;37.25;30.30;;;7.50;99.90;;;;;;4983688;28;20217;-80
2021/04/20 04:25:25;;;;;;;38.08;31.50;;;7.60;99.90;;;;;;4984937;28;20220;-81
2021/04/20 04:27:56;;;;;;;37.25;29.50;;;7.60;99.90;;;;;;4982835;28;20237;-80
2021/04/20 04:30:25;;;;;;;31.73;26.77;;;7.50;99.90;;;;;;4982367;28;20232;-81
2021/04/20 04:32:52;;;;;;;36.17;27.17;;;7.50;99.90;;;;;;5000441;28;20189;-81
2021/04/20 04:35:21;;;;;;;35.92;30.30;;;7.50;99.90;;;;;;5000380;28;20221;-79
2021/04/20 04:37:49;;;;;;;36.60;31.63;;;7.60;99.90;;;;;;5000836;28;20201;-80
2021/04/20 04:40:18;;;;;;;39.53;30.23;;;7.60;99.90;;;;;;5000422;28;20198;-80
2021/04/20 04:42:45;;;;;;;37.83;30.77;;;7.60;99.90;;;;;;4982995;28;20288;-80
2021/04/20 04:45:14;;;;;;;35.58;28.65;;;7.40;99.90;;;;;;5001149;28;20790;-80
2021/04/20 04:47:41;;;;;;;36.10;29.48;;;7.30;99.90;;;;;;4983227;28;20211;-80
2021/04/20 04:50:10;;;;;;;33.38;27.02;;;7.40;99.90;;;;;;4983307;28;20226;-80
2021/04/20 04:52:39;;;;;;;36.30;28.33;;;7.50;99.90;;;;;;4983951;28;20764;-80
2021/04/20 04:55:07;;;;;;;39.35;27.67;;;7.60;99.90;;;;;;4966592;28;20221;-80
2021/04/20 04:57:34;;;;;;;31.63;25.52;;;7.50;99.90;;;;;;4982864;28;20197;-80
2021/04/20 05:00:05;;;;;;;32.83;27.67;;;7.20;99.90;;;;;;4981631;28;20625;-81
2021/04/20 05:02:34;;;;;;;39.17;30.23;;;7.00;99.90;;;;;;4999347;28;20217;-80
2021/04/20 05:05:04;;;;;;;35.95;26.92;;;7.00;99.90;;;;;;4999080;28;20221;-80
2021/04/20 05:07:31;;;;;;;40.65;30.95;;;7.10;99.90;;;;;;4997986;28;20228;-80
2021/04/20 05:10:03;;;;;;;49.03;38.72;;;7.20;99.90;;;;;;4982728;28;20256;-81
2021/04/20 05:12:31;;;;;;;45.20;35.80;;;7.30;99.90;;;;;;4981929;28;20193;-81
2021/04/20 05:15:05;;;;;;;42.03;32.22;;;7.40;99.90;;;;;;5001196;28;20235;-81
2021/04/20 05:17:33;;;;;;;36.40;30.17;;;7.40;99.90;;;;;;4985053;28;20230;-81
2021/04/20 05:20:00;;;;;;;37.47;31.13;;;7.20;99.90;;;;;;5001015;28;20390;-81
2021/04/20 05:22:27;;;;;;;37.28;30.85;;;7.20;99.90;;;;;;4997113;28;20201;-80
2021/04/20 05:24:54;;;;;;;40.88;32.55;;;7.40;99.90;;;;;;4994140;28;20224;-80
2021/04/20 05:27:21;;;;;;;40.95;32.53;;;7.60;99.90;;;;;;4993962;28;20602;-79
2021/04/20 05:29:48;;;;;;;39.38;31.77;;;7.60;99.90;;;;;;4993712;28;20364;-80
2021/04/20 05:32:16;;;;;;;41.45;33.80;;;7.70;99.90;;;;;;4994346;28;20286;-80
2021/04/20 05:34:43;;;;;;;40.42;34.65;;;7.60;99.90;;;;;;4977575;28;20221;-80
2021/04/20 05:37:10;;;;;;;43.08;35.72;;;7.60;99.90;;;;;;4977978;28;20259;-80
2021/04/20 05:39:37;;;;;;;44.05;34.38;;;7.60;99.90;;;;;;4997939;28;20205;-80
2021/04/20 05:42:04;;;;;;;45.17;33.78;;;7.70;99.90;;;;;;4998730;28;20227;-80
2021/04/20 05:44:32;;;;;;;42.72;35.58;;;7.80;99.90;;;;;;4998454;28;20239;-80
2021/04/20 05:46:59;;;;;;;45.47;33.83;;;7.70;99.90;;;;;;4998183;28;20205;-80
2021/04/20 05:49:26;;;;;;;45.10;35.00;;;7.80;99.90;;;;;;4981349;28;20212;-81
2021/04/20 05:51:55;;;;;;;39.17;33.00;;;8.00;99.90;;;;;;4998339;28;20209;-79
2021/04/20 05:54:22;;;;;;;42.72;32.75;;;7.90;99.90;;;;;;4998703;28;20294;-80
2021/04/20 05:56:49;;;;;;;35.85;29.88;;;7.80;99.90;;;;;;4982977;28;20255;-80
2021/04/20 05:59:17;;;;;;;38.88;31.98;;;7.70;99.90;;;;;;4981434;28;20212;-80
2021/04/20 06:01:46;;;;;;;45.30;32.50;;;7.70;99.90;;;;;;4998356;28;20201;-80
2021/04/20 06:04:14;;;;;;;42.58;33.83;;;7.80;99.90;;;;;;4997949;28;20296;-81
2021/04/20 06:06:42;;;;;;;46.85;35.95;;;7.80;99.90;;;;;;4999521;28;20256;-81
2021/04/20 06:09:11;;;;;;;44.20;34.75;;;8.10;99.90;;;;;;5000388;28;20249;-81
2021/04/20 06:11:39;;;;;;;40.65;33.28;;;8.00;99.90;;;;;;4966878;28;20205;-81
2021/04/20 06:14:07;;;;;;;40.78;32.13;;;8.10;99.90;;;;;;4998913;28;20584;-81
2021/04/20 06:16:35;;;;;;;41.40;32.35;;;8.20;99.90;;;;;;5000104;28;20722;-81
2021/04/20 06:19:02;;;;;;;38.28;32.10;;;8.30;99.90;;;;;;5004068;28;20196;-81
2021/04/20 06:21:30;;;;;;;36.58;29.90;;;8.20;99.90;;;;;;5015379;28;20209;-81
2021/04/20 06:23:57;;;;;;;36.92;29.63;;;8.40;99.90;;;;;;4979601;28;20217;-80
2021/04/20 06:26:26;;;;;;;37.03;29.58;;;8.50;99.90;;;;;;5009503;28;20190;-81
2021/04/20 06:28:53;;;;;;;35.08;28.60;;;8.60;99.90;;;;;;4997395;28;20315;-81
2021/04/20 06:31:22;;;;;;;36.60;27.98;;;8.60;99.90;;;;;;4997341;28;20445;-80
2021/04/20 06:33:49;;;;;;;30.65;25.85;;;8.50;99.90;;;;;;4980021;28;20225;-81
2021/04/20 06:36:16;;;;;;;33.90;27.88;;;8.60;99.90;;;;;;4979950;28;20561;-81
2021/04/20 06:38:44;;;;;;;34.17;28.38;;;8.80;99.90;;;;;;5004222;28;20250;-82
2021/04/20 06:41:12;;;;;;;29.63;24.30;;;9.00;99.90;;;;;;5016796;28;20208;-81
2021/04/20 06:43:51;;;;;;;31.98;22.98;;;9.20;99.90;;;;;;5004725;28;20216;-80
2021/04/20 06:46:24;;;;;;;28.25;22.10;;;9.10;99.90;;;;;;4997308;28;20212;-80
2021/04/20 06:48:57;;;;;;;32.63;22.20;;;9.30;99.90;;;;;;4995929;28;20297;-81
2021/04/20 06:51:28;;;;;;;29.38;25.55;;;9.40;99.90;;;;;;4996929;28;20773;-79
2021/04/20 06:53:59;;;;;;;35.38;26.23;;;9.50;99.90;;;;;;4995372;28;20216;-80
2021/04/20 06:56:32;;;;;;;31.50;24.42;;;9.60;99.90;;;;;;4997001;28;20296;-80
2021/04/20 06:59:12;;;;;;;33.50;25.40;;;9.80;99.90;;;;;;4997237;28;20208;-80
2021/04/20 07:01:45;;;;;;;33.38;24.67;;;9.70;99.90;;;;;;4979234;28;20300;-80
2021/04/20 07:04:15;;;;;;;34.63;24.00;;;9.90;99.90;;;;;;4978489;28;20248;-80
2021/04/20 07:06:55;;;;;;;28.73;24.35;;;9.90;99.90;;;;;;4996350;28;20268;-80
2021/04/20 07:09:26;;;;;;;36.47;25.52;;;9.90;99.90;;;;;;4993939;28;20219;-80
2021/04/20 07:11:55;;;;;;;34.05;27.13;;;10.20;99.90;;;;;;4996420;28;20201;-80
2021/04/20 07:14:32;;;;;;;36.10;29.10;;;10.30;99.90;;;;;;4996355;28;20228;-79
2021/04/20 07:17:28;;;;;;;36.90;31.85;;;10.50;99.90;;;;;;4978597;28;20204;-81
2021/04/20 07:20:21;;;;;;;35.60;30.25;;;10.60;99.90;;;;;;4959526;28;20210;-80
2021/04/20 07:23:18;;;;;;;37.92;31.20;;;10.70;99.90;;;;;;4973432;28;20204;-80
2021/04/20 07:25:58;;;;;;;38.35;31.83;;;10.90;99.90;;;;;;4977292;28;20197;-80
2021/04/20 07:28:35;;;;;;;36.80;28.40;;;10.90;99.90;;;;;;4978735;28;20279;-81
2021/04/20 07:31:15;;;;;;;37.17;30.27;;;10.80;99.90;;;;;;4982888;28;20197;-80
2021/04/20 07:34:11;;;;;;;35.53;28.92;;;10.90;99.90;;;;;;5000473;28;20263;-80
2021/04/20 07:36:56;;;;;;;32.05;27.95;;;11.00;99.90;;;;;;4982116;28;20208;-80
2021/04/20 07:39:25;;;;;;;36.33;30.08;;;11.30;99.90;;;;;;4995468;28;20247;-80
2021/04/20 07:41:55;;;;;;;35.70;29.08;;;11.30;99.90;;;;;;4994831;28;20201;-80
2021/04/20 07:44:37;;;;;;;39.05;32.17;;;11.40;99.90;;;;;;5000517;28;20228;-80
2021/04/20 07:47:10;;;;;;;31.27;27.98;;;11.40;99.90;;;;;;4970748;28;20731;-80
2021/04/20 07:49:42;;;;;;;35.38;28.58;;;11.30;99.90;;;;;;4996303;28;20213;-79
2021/04/20 07:52:14;;;;;;;32.92;27.50;;;11.40;99.90;;;;;;4999495;28;20296;-80
2021/04/20 07:54:51;;;;;;;32.13;28.80;;;11.40;99.90;;;;;;4996417;28;20228;-79
2021/04/20 07:57:24;;;;;;;37.05;28.10;;;11.50;99.90;;;;;;4997773;28;20661;-79
2021/04/20 08:00:06;;;;;;;30.25;26.63;;;11.70;99.90;;;;;;4997852;28;20197;-79
2021/04/20 08:02:48;;;;;;;29.65;26.20;;;11.70;99.90;;;;;;4997779;28;20759;-79
2021/04/20 08:05:21;;;;;;;30.00;25.27;;;11.90;99.90;;;;;;4980099;28;20232;-78
2021/04/20 08:07:55;;;;;;;28.85;22.52;;;11.90;99.90;;;;;;4995821;28;20306;-78
2021/04/20 08:10:26;;;;;;;24.67;20.52;;;12.00;99.90;;;;;;4996595;28;20268;-78
2021/04/20 08:12:59;;;;;;;21.35;18.63;;;12.00;99.90;;;;;;4979204;28;20573;-78
2021/04/20 08:15:36;;;;;;;24.30;18.80;;;12.00;99.90;;;;;;4996383;28;20244;-78
2021/04/20 08:18:11;;;;;;;23.85;19.27;;;12.30;99.90;;;;;;4978934;28;20197;-78
2021/04/20 08:20:38;;;;;;;17.25;15.27;;;12.60;99.90;;;;;;4972268;28;20686;-78
2021/04/20 08:23:06;;;;;;;17.92;14.27;;;12.70;99.90;;;;;;4978505;28;20210;-79
2021/04/20 08:25:38;;;;;;;17.15;13.90;;;12.80;99.90;;;;;;4997005;28;20229;-79
2021/04/20 08:28:11;;;;;;;46.60;34.45;;;12.90;99.90;;;;;;4979185;28;20692;-79
2021/04/20 08:30:44;;;;;;;17.90;11.90;;;13.10;99.90;;;;;;4979286;28;20243;-79
2021/04/20 08:33:17;;;;;;;16.17;13.27;;;13.20;99.90;;;;;;4996630;28;20193;-78
2021/04/20 08:35:47;;;;;;;19.65;13.55;;;13.00;99.90;;;;;;4996965;28;20603;-78
2021/04/20 08:38:42;;;;;;;16.73;13.23;;;13.20;99.90;;;;;;4995522;28;20680;-79
2021/04/20 08:41:15;;;;;;;15.23;11.73;;;13.30;99.90;;;;;;4993893;28;20235;-78
2021/04/20 08:43:54;;;;;;;14.98;10.82;;;13.40;99.90;;;;;;4961453;28;20224;-79
2021/04/20 08:46:31;;;;;;;15.27;12.15;;;13.40;99.90;;;;;;5001132;28;20497;-78
2021/04/20 08:49:09;;;;;;;14.00;11.02;;;13.40;99.90;;;;;;5001373;28;20213;-79
2021/04/20 08:51:42;;;;;;;11.13;9.82;;;13.70;99.90;;;;;;5005073;28;20205;-79
2021/04/20 08:54:17;;;;;;;17.55;11.25;;;13.90;99.90;;;;;;4982635;28;20209;-78
2021/04/20 08:56:49;;;;;;;16.48;10.73;;;14.20;99.90;;;;;;4993555;28;20201;-79
2021/04/20 08:59:31;;;;;;;13.25;10.02;;;14.20;99.90;;;;;;4995611;28;20197;-79
2021/04/20 09:02:24;;;;;;;13.73;10.05;;;14.30;99.90;;;;;;4976547;28;20262;-79
2021/04/20 09:05:11;;;;;;;12.48;10.57;;;14.30;99.90;;;;;;4994184;28;20332;-79
2021/04/20 09:07:47;;;;;;;12.85;10.95;;;14.00;99.90;;;;;;4976565;28;20591;-78
2021/04/20 09:10:17;;;;;;;12.75;10.77;;;14.10;99.90;;;;;;4993757;28;20307;-78
2021/04/20 09:12:45;;;;;;;13.02;11.43;;;14.30;99.90;;;;;;4990516;28;20201;-78
2021/04/20 09:15:15;;;;;;;16.02;13.50;;;14.40;99.90;;;;;;4976093;28;20704;-78
2021/04/20 09:17:49;;;;;;;15.50;10.25;;;14.50;99.90;;;;;;4990925;28;20817;-78
2021/04/20 09:20:30;;;;;;;11.75;10.40;;;14.70;99.90;;;;;;4992036;28;20197;-78
2021/04/20 09:23:02;;;;;;;11.25;10.05;;;14.80;99.90;;;;;;4978312;28;20207;-80
2021/04/20 09:25:31;;;;;;;11.80;9.95;;;14.80;99.90;;;;;;4978934;28;20213;-80
2021/04/20 09:28:05;;;;;;;12.57;10.23;;;14.90;99.90;;;;;;4996279;28;20213;-80
2021/04/20 09:30:37;;;;;;;14.13;10.68;;;15.00;99.90;;;;;;4978173;28;20292;-79
2021/04/20 09:33:08;;;;;;;14.80;11.23;;;15.40;99.90;;;;;;4996138;28;20293;-79
2021/04/20 09:35:38;;;;;;;14.35;11.32;;;15.50;99.90;;;;;;4995820;28;20190;-79
2021/04/20 09:38:12;;;;;;;16.88;11.73;;;15.40;99.90;;;;;;4996047;28;20202;-79
2021/04/20 09:40:42;;;;;;;15.25;10.60;;;15.40;99.90;;;;;;4978193;28;20189;-80
2021/04/20 09:43:23;;;;;;;12.50;11.07;;;15.60;99.90;;;;;;4996023;28;20185;-79
2021/04/20 09:45:57;;;;;;;15.75;11.65;;;15.50;99.90;;;;;;4975430;28;20212;-79
2021/04/20 09:48:31;;;;;;;14.10;10.18;;;15.70;99.90;;;;;;4994704;28;20276;-80
2021/04/20 09:51:07;;;;;;;17.38;11.25;;;15.40;99.90;;;;;;4992734;28;20208;-79
2021/04/20 09:53:44;;;;;;;12.73;10.48;;;15.40;99.90;;;;;;4994023;28;20217;-79
2021/04/20 09:56:25;;;;;;;16.88;10.50;;;15.40;99.90;;;;;;4978681;28;20262;-79
2021/04/20 09:58:52;;;;;;;14.20;10.18;;;15.60;99.90;;;;;;4977200;28;20201;-80
2021/04/20 10:02:01;;;;;;;12.77;9.32;;;15.70;99.90;;;;;;4995713;28;20212;-79
2021/04/20 10:04:46;;;;;;;17.25;12.20;;;15.40;99.90;;;;;;4934689;29;20367;-79
2021/04/20 10:07:33;;;;;;;16.08;10.93;;;15.70;99.90;;;;;;4944940;29;20430;-81
2021/04/20 10:10:07;;;;;;;11.18;8.43;;;16.00;99.90;;;;;;5003158;28;20217;-80
2021/04/20 10:12:45;;;;;;;17.23;10.73;;;16.10;99.90;;;;;;4967758;28;20225;-80
2021/04/20 10:15:17;;;;;;;16.13;10.50;;;16.00;99.90;;;;;;4979958;28;20257;-80
2021/04/20 10:17:58;;;;;;;12.10;9.05;;;16.10;99.90;;;;;;4961333;28;20264;-80
2021/04/20 10:20:37;;;;;;;13.27;8.88;;;16.30;99.90;;;;;;4994730;28;20244;-80
2021/04/20 10:23:14;;;;;;;16.67;11.35;;;16.50;99.90;;;;;;4993727;28;20194;-79
2021/04/20 10:25:48;;;;;;;13.25;10.63;;;16.40;99.90;;;;;;4992571;28;20256;-80
2021/04/20 10:28:24;;;;;;;14.55;8.73;;;16.60;99.90;;;;;;4977188;28;20201;-79
2021/04/20 10:30:54;;;;;;;11.13;8.27;;;16.80;99.90;;;;;;4994692;28;20261;-80
2021/04/20 10:33:32;;;;;;;10.80;7.90;;;17.10;99.90;;;;;;4962330;28;20217;-79
2021/04/20 10:36:01;;;;;;;12.13;9.05;;;16.90;99.90;;;;;;4977335;28;20204;-80
2021/04/20 10:38:32;;;;;;;8.50;6.93;;;17.10;99.90;;;;;;4995059;28;20288;-80
2021/04/20 10:41:01;;;;;;;13.00;8.50;;;17.20;99.90;;;;;;4994277;28;20570;-80
2021/04/20 10:43:32;;;;;;;8.40;7.60;;;17.20;99.90;;;;;;4961250;28;20247;-80
2021/04/20 10:46:07;;;;;;;8.63;6.75;;;17.30;99.90;;;;;;4979647;28;20685;-79
2021/04/20 10:48:36;;;;;;;11.65;6.97;;;17.50;99.90;;;;;;4994634;28;20232;-79
2021/04/20 10:51:04;;;;;;;14.02;8.13;;;17.80;99.90;;;;;;4976835;28;20941;-80
2021/04/20 10:54:03;;;;;;;8.60;7.30;;;17.60;99.90;;;;;;4994417;28;20221;-79
2021/04/20 10:56:31;;;;;;;9.73;7.45;;;17.60;99.90;;;;;;4992798;28;20204;-82
2021/04/20 10:59:00;;;;;;;9.05;6.95;;;17.40;99.90;;;;;;4998425;28;20703;-82
2021/04/20 11:01:29;;;;;;;11.88;6.32;;;17.50;99.90;;;;;;4991075;28;20197;-83
2021/04/20 11:03:58;;;;;;;11.68;6.65;;;17.20;99.90;;;;;;5013736;28;20216;-83
2021/04/20 11:06:56;;;;;;;16.58;7.95;;;17.40;99.90;;;;;;4981345;28;20727;-82
2021/04/20 11:09:29;;;;;;;9.68;5.93;;;17.60;99.90;;;;;;5009129;28;20229;-84
2021/04/20 11:11:56;;;;;;;12.07;8.40;;;17.80;99.90;;;;;;5005977;28;20201;-81
2021/04/20 11:14:40;;;;;;;13.77;9.57;;;17.90;99.90;;;;;;5006560;28;20225;-83
2021/04/20 11:17:14;;;;;;;9.40;6.78;;;17.70;99.90;;;;;;4984198;28;20307;-83
2021/04/20 11:19:46;;;;;;;7.55;5.97;;;17.90;99.90;;;;;;4987690;28;20204;-82
2021/04/20 11:22:16;;;;;;;10.70;6.25;;;18.20;99.90;;;;;;4981738;28;20202;-83
2021/04/20 11:24:50;;;;;;;8.02;5.43;;;18.20;99.90;;;;;;5003206;28;20751;-83
2021/04/20 11:27:19;;;;;;;10.40;6.07;;;18.40;99.90;;;;;;5004365;28;20200;-83
2021/04/20 11:29:52;;;;;;;7.93;6.40;;;18.40;99.90;;;;;;5003309;28;20217;-84
2021/04/20 11:32:24;;;;;;;8.57;7.18;;;18.50;99.90;;;;;;4997697;28;20692;-83
2021/04/20 11:34:55;;;;;;;10.40;7.72;;;18.50;99.90;;;;;;4985272;28;20228;-83
2021/04/20 11:37:24;;;;;;;7.72;7.00;;;18.70;99.90;;;;;;4999792;28;20232;-82
2021/04/20 11:39:57;;;;;;;11.55;6.95;;;19.00;99.90;;;;;;4999427;28;20567;-82
2021/04/20 11:42:32;;;;;;;8.75;6.95;;;19.30;99.90;;;;;;4984119;28;20224;-82
2021/04/20 11:45:02;;;;;;;14.02;7.70;;;19.40;99.90;;;;;;5000706;28;20229;-85
2021/04/20 11:47:30;;;;;;;15.77;8.30;;;20.00;99.90;;;;;;5001056;28;20388;-84
2021/04/20 11:50:01;;;;;;;10.05;6.63;;;20.30;99.90;;;;;;4983641;28;20210;-85
2021/04/20 11:52:30;;;;;;;8.05;6.55;;;20.50;99.90;;;;;;5001268;28;20429;-84
2021/04/20 11:55:00;;;;;;;7.20;5.32;;;20.70;99.90;;;;;;5001061;28;20250;-84
2021/04/20 11:57:28;;;;;;;10.18;6.03;;;20.50;99.90;;;;;;5000453;28;20189;-84
2021/04/20 11:59:55;;;;;;;7.88;5.68;;;20.60;99.90;;;;;;5001727;28;20194;-83
2021/04/20 12:02:28;;;;;;;9.70;6.20;;;20.90;99.90;;;;;;5005244;28;20271;-80
2021/04/20 12:05:00;;;;;;;6.18;4.93;;;20.40;99.90;;;;;;5013313;28;20217;-80
2021/04/20 12:07:29;;;;;;;8.57;6.45;;;20.40;99.90;;;;;;5012824;28;20208;-80
2021/04/20 12:09:58;;;;;;;8.02;5.72;;;20.40;99.90;;;;;;4996578;28;20499;-79
2021/04/20 12:12:29;;;;;;;15.63;9.95;;;20.60;99.90;;;;;;5012475;28;20414;-80
2021/04/20 12:14:57;;;;;;;9.48;5.55;;;20.60;99.90;;;;;;5012829;28;20220;-81
2021/04/20 12:17:29;;;;;;;9.23;6.90;;;20.60;99.90;;;;;;4994401;28;20214;-84
2021/04/20 12:19:59;;;;;;;9.38;6.43;;;20.50;99.90;;;;;;4973978;28;20216;-84
2021/04/20 12:22:28;;;;;;;10.88;6.82;;;20.80;99.90;;;;;;5007698;28;20620;-84
2021/04/20 12:24:56;;;;;;;6.45;5.82;;;21.10;99.90;;;;;;4990096;28;20231;-84
2021/04/20 12:27:26;;;;;;;10.00;6.57;;;21.70;99.90;;;;;;4988565;28;20237;-84
2021/04/20 12:29:53;;;;;;;11.38;6.20;;;22.00;99.90;;;;;;5001408;28;20291;-84
2021/04/20 12:32:23;;;;;;;10.95;6.30;;;22.00;99.90;;;;;;5000612;28;20617;-85
2021/04/20 12:35:05;;;;;;;7.28;5.63;;;22.20;99.90;;;;;;4981978;28;20217;-84
2021/04/20 12:37:39;;;;;;;10.70;5.43;;;22.00;99.90;;;;;;4982072;28;20189;-84
2021/04/20 12:40:09;;;;;;;8.13;5.90;;;22.30;99.90;;;;;;4999285;28;20197;-83
2021/04/20 12:42:42;;;;;;;10.25;6.53;;;22.10;99.90;;;;;;4998658;28;20201;-83
2021/04/20 12:45:13;;;;;;;8.27;5.35;;;21.60;99.90;;;;;;5004515;28;20595;-83
2021/04/20 12:47:41;;;;;;;7.15;5.63;;;21.80;99.90;;;;;;4997723;28;20656;-83
2021/04/20 12:50:10;;;;;;;5.63;4.57;;;22.10;99.90;;;;;;5000325;28;20217;-84
2021/04/20 12:52:42;;;;;;;6.53;4.78;;;22.20;99.90;;;;;;4993147;28;20197;-83
2021/04/20 12:55:13;;;;;;;7.38;6.40;;;22.20;99.90;;;;;;5016849;28;20209;-82
2021/04/20 12:57:44;;;;;;;7.00;4.78;;;21.70;99.90;;;;;;5004222;28;20193;-82